Tropical Cyclones
[Index]
Main Index Home Page Stock Weather Photos Extreme Storms Discussion Storm News and Storm Chasing Reports Tropical Cyclones / Hurricanes / Typhoons Weather Data and Links Wild Fires / Bushfires Weather Observation Techniques Weather Picture Catalogue Tornado Pictures and Reports Stock Video Footage and DVDs for sale
Season 1949-1950 Tropical Cyclone 195013 Track Map
Season 1949-1950 Summaries: [BoM-AU] [JTWC-AU] [JTWC-SIO] [JTWC-SPAC] [JTWC-SH]
<<- Previous TC | JTWC 1949-1950 Season | Next TC ->>

click for intensity scale information  Lat/long Grid: Show Hide

 Date Labels: Show Hide

Joint Typhoon Warning Centre Cyclone Data

Name: 195013
Number: 122 / 5013

21 Feb 1950 00:00 UTC to 01 Mar 1950 00:00 UTC

    date/time    lat    long     hPa   cat  kts
1950-02-21 00   17.4   165.8W                             
1950-02-21 06   17.3   166.4W                             
1950-02-21 12   17.3   166.9W                             
1950-02-21 18   17.3   167.3W                             
1950-02-22 00   17.3   167.8W                             
1950-02-22 06   17.3   168.6W                             
1950-02-22 12   17.3   169.4W                             
1950-02-22 18   17.3   170.1W                             
1950-02-23 00   17.3   170.9W                             
1950-02-23 06   17.3   171.9W                             
1950-02-23 12   17.3   173.0W                             
1950-02-23 18   17.3   173.9W                             
1950-02-24 00   17.2   174.9W                             
1950-02-24 06   17.0   176.1W                             
1950-02-24 12   16.8   177.4W                             
1950-02-24 18   16.7   178.5W                             
1950-02-25 00   16.7   179.7W                             
1950-02-25 06   16.7   179.2                              
1950-02-25 12   16.7   178.0                              
1950-02-25 18   16.9   176.9                              
1950-02-26 00   17.2   176.3                              
1950-02-26 06   17.6   176.2                              
1950-02-26 12   18.0   176.1                              
1950-02-26 18   18.4   176.0                              
1950-02-27 00   18.8   176.0                              
1950-02-27 06   20.0   176.3                              
1950-02-27 12   21.7   177.0                              
1950-02-27 18   22.7   177.7                              
1950-02-28 00   24.2   178.7                              
1950-02-28 06   26.6   179.7W                             
1950-02-28 12   29.0   178.0W                             
1950-02-28 18   31.4   176.7W                             
1950-03-01 00   33.7   175.6W                             
Winds are 1-min average.

Tropical cyclone tracks developed by Michael Bath using data from the Joint Typhoon Warning Centre Best Tracks and Google Maps.


[Australian Severe Weather index] [Copyright Notice] [Email Contacts] [Search This Site] [Privacy Policy]
Document: tropical_cyclone_195013.htm Updated: 18 September 2016